createdAt,value
2022-08-31T00:00:33.438Z,18.40
2022-08-31T00:03:19.920Z,18.40
2022-08-31T00:05:48.837Z,18.30
2022-08-31T00:08:17.802Z,18.30
2022-08-31T00:10:49.616Z,18.20
2022-08-31T00:13:18.635Z,18.20
2022-08-31T00:15:47.457Z,18.20
2022-08-31T00:18:16.596Z,18.20
2022-08-31T00:20:47.491Z,18.10
2022-08-31T00:23:18.633Z,18.00
2022-08-31T00:25:49.820Z,18.00
2022-08-31T00:28:19.379Z,17.90
2022-08-31T00:30:50.262Z,18.00
2022-08-31T00:33:19.119Z,17.90
2022-08-31T00:35:47.812Z,17.90
2022-08-31T00:38:16.099Z,17.90
2022-08-31T00:40:48.203Z,17.80
2022-08-31T00:43:45.562Z,17.80
2022-08-31T00:46:17.557Z,17.70
2022-08-31T00:48:55.792Z,17.70
2022-08-31T00:51:24.881Z,17.70
2022-08-31T00:53:53.792Z,17.60
2022-08-31T00:56:24.384Z,17.60
2022-08-31T00:58:54.719Z,17.60
2022-08-31T01:01:24.023Z,17.60
2022-08-31T01:03:52.613Z,17.60
2022-08-31T01:06:22.283Z,17.60
2022-08-31T01:08:51.570Z,17.60
2022-08-31T01:11:21.896Z,17.50
2022-08-31T01:13:51.731Z,17.40
2022-08-31T01:16:25.615Z,17.40
2022-08-31T01:18:57.873Z,17.30
2022-08-31T01:21:33.049Z,17.40
2022-08-31T01:24:05.572Z,17.30
2022-08-31T01:26:35.047Z,17.30
2022-08-31T01:29:07.403Z,17.30
2022-08-31T01:31:43.009Z,17.30
2022-08-31T01:34:12.127Z,17.30
2022-08-31T01:36:43.086Z,17.30
2022-08-31T01:39:13.145Z,17.30
2022-08-31T01:41:44.105Z,17.30
2022-08-31T01:44:14.285Z,17.20
2022-08-31T01:46:43.999Z,17.30
2022-08-31T01:49:12.502Z,17.20
2022-08-31T01:51:41.259Z,17.20
2022-08-31T01:54:09.741Z,17.10
2022-08-31T01:56:42.842Z,17.10
2022-08-31T01:59:17.679Z,17.10
2022-08-31T02:01:53.491Z,17.10
2022-08-31T02:04:26.849Z,17.10
2022-08-31T02:07:01.137Z,17.00
2022-08-31T02:09:31.099Z,17.00
2022-08-31T02:12:01.872Z,16.90
2022-08-31T02:14:30.150Z,16.90
2022-08-31T02:16:58.434Z,16.80
2022-08-31T02:19:27.469Z,16.80
2022-08-31T02:21:57.570Z,16.70
2022-08-31T02:24:25.896Z,16.80
2022-08-31T02:26:57.386Z,16.80
2022-08-31T02:29:28.576Z,16.80
2022-08-31T02:31:58.467Z,16.80
2022-08-31T02:34:27.062Z,16.70
2022-08-31T02:36:55.332Z,16.80
2022-08-31T02:39:23.716Z,16.80
2022-08-31T02:41:52.056Z,16.70
2022-08-31T02:44:20.397Z,16.70
2022-08-31T02:46:50.652Z,16.70
2022-08-31T02:49:48.070Z,16.70
2022-08-31T02:52:16.582Z,16.60
2022-08-31T02:54:46.077Z,16.60
2022-08-31T02:57:14.355Z,16.60
2022-08-31T02:59:42.599Z,16.60
2022-08-31T03:02:12.369Z,16.50
2022-08-31T03:04:42.306Z,16.50
2022-08-31T03:07:10.883Z,16.50
2022-08-31T03:09:39.199Z,16.50
2022-08-31T03:12:07.921Z,16.40
2022-08-31T03:14:39.416Z,16.40
2022-08-31T03:17:07.972Z,16.30
2022-08-31T03:19:37.836Z,16.30
2022-08-31T03:22:06.219Z,16.30
2022-08-31T03:24:34.468Z,16.30
2022-08-31T03:27:02.863Z,16.30
2022-08-31T03:29:31.270Z,16.30
2022-08-31T03:32:15.380Z,16.20
2022-08-31T03:34:47.938Z,16.20
2022-08-31T03:37:16.218Z,16.30
2022-08-31T03:39:44.697Z,16.20
2022-08-31T03:42:13.327Z,16.40
2022-08-31T03:44:41.637Z,16.20
2022-08-31T03:47:17.816Z,16.20
2022-08-31T03:49:48.075Z,16.20
2022-08-31T03:52:23.046Z,16.20
2022-08-31T03:55:01.316Z,16.20
2022-08-31T03:57:30.040Z,16.10
2022-08-31T04:00:00.515Z,16.10
2022-08-31T04:02:44.800Z,16.10
2022-08-31T04:05:44.155Z,16.20
2022-08-31T04:08:16.999Z,16.00
2022-08-31T04:11:14.581Z,16.00
2022-08-31T04:14:15.378Z,16.00
2022-08-31T04:17:02.556Z,15.90
2022-08-31T04:19:42.914Z,15.80
2022-08-31T04:22:31.584Z,15.80
2022-08-31T04:25:21.537Z,15.80
2022-08-31T04:27:50.362Z,15.80
2022-08-31T04:30:21.696Z,15.80
2022-08-31T04:32:50.219Z,15.70
2022-08-31T04:35:18.792Z,15.70
2022-08-31T04:37:48.412Z,15.70
2022-08-31T04:40:20.382Z,15.60
2022-08-31T04:42:54.989Z,15.60
2022-08-31T04:45:25.105Z,15.60
2022-08-31T04:47:54.344Z,15.70
2022-08-31T04:50:22.999Z,15.60
2022-08-31T04:53:12.671Z,15.60
2022-08-31T04:55:41.995Z,15.60
2022-08-31T04:58:13.756Z,15.60
2022-08-31T05:00:44.533Z,15.60
2022-08-31T05:03:53.390Z,15.70
2022-08-31T05:06:25.216Z,15.60
2022-08-31T05:08:59.228Z,15.60
2022-08-31T05:11:29.201Z,15.60
2022-08-31T05:13:59.930Z,15.60
2022-08-31T05:16:30.492Z,15.60
2022-08-31T05:18:59.796Z,15.60
2022-08-31T05:21:32.112Z,15.60
2022-08-31T05:24:04.165Z,15.60
2022-08-31T05:26:36.689Z,15.70
2022-08-31T05:29:08.793Z,15.60
2022-08-31T05:31:39.374Z,15.60
2022-08-31T05:34:08.475Z,15.70
2022-08-31T05:36:40.223Z,15.70
2022-08-31T05:39:11.680Z,15.60
2022-08-31T05:41:41.441Z,15.60
2022-08-31T05:44:10.707Z,15.70
2022-08-31T05:46:40.953Z,15.60
2022-08-31T05:49:11.000Z,15.70
2022-08-31T05:51:40.378Z,15.80
2022-08-31T05:54:11.436Z,15.80
2022-08-31T05:56:42.854Z,15.90
2022-08-31T05:59:12.883Z,15.90
2022-08-31T06:01:43.231Z,15.90
2022-08-31T06:04:15.176Z,15.90
2022-08-31T06:06:45.208Z,15.80
2022-08-31T06:09:17.070Z,15.90
2022-08-31T06:11:46.841Z,16.00
2022-08-31T06:14:19.301Z,16.00
2022-08-31T06:16:49.446Z,16.10
2022-08-31T06:19:20.751Z,16.10
2022-08-31T06:21:51.387Z,16.10
2022-08-31T06:24:25.580Z,16.20
2022-08-31T06:26:59.179Z,16.20
2022-08-31T06:29:35.346Z,16.20
2022-08-31T06:32:07.927Z,16.20
2022-08-31T06:34:38.305Z,16.30
2022-08-31T06:37:08.058Z,16.20
2022-08-31T06:40:19.977Z,16.30
2022-08-31T06:43:10.405Z,16.30
2022-08-31T06:45:58.442Z,16.30
2022-08-31T06:48:32.673Z,16.30
2022-08-31T06:51:01.418Z,16.50
2022-08-31T06:53:30.647Z,16.50
2022-08-31T06:56:20.842Z,16.50
2022-08-31T06:59:09.781Z,16.60
2022-08-31T07:01:55.420Z,16.70
2022-08-31T07:04:35.146Z,16.70
2022-08-31T07:07:04.593Z,16.80
2022-08-31T07:09:33.123Z,16.90
2022-08-31T07:12:03.229Z,16.90
2022-08-31T07:14:31.705Z,17.00
2022-08-31T07:17:02.940Z,17.00
2022-08-31T07:19:32.986Z,17.10
2022-08-31T07:22:07.715Z,17.10
2022-08-31T07:24:37.623Z,17.20
2022-08-31T07:27:16.276Z,17.20
2022-08-31T07:29:50.519Z,17.30
2022-08-31T07:32:19.887Z,17.40
2022-08-31T07:34:58.445Z,17.40
2022-08-31T07:37:49.495Z,17.50
2022-08-31T07:40:36.127Z,17.50
2022-08-31T07:43:06.113Z,17.60
2022-08-31T07:45:39.233Z,17.70
2022-08-31T07:48:08.932Z,17.80
2022-08-31T07:51:17.882Z,18.00
2022-08-31T07:53:51.089Z,18.00
2022-08-31T07:56:39.796Z,18.10
2022-08-31T07:59:15.296Z,18.10
2022-08-31T08:01:45.839Z,18.30
2022-08-31T08:04:25.550Z,18.30
2022-08-31T08:06:55.939Z,18.30
2022-08-31T08:09:51.231Z,18.50
2022-08-31T08:12:39.422Z,18.50
2022-08-31T08:15:18.313Z,18.80
2022-08-31T08:18:05.690Z,19.20
2022-08-31T08:20:41.418Z,19.80
2022-08-31T08:23:13.926Z,20.40
2022-08-31T08:26:08.874Z,20.90
2022-08-31T08:29:06.140Z,21.50
2022-08-31T08:31:38.853Z,22.00
2022-08-31T08:34:08.105Z,22.40
2022-08-31T08:36:40.861Z,22.70
2022-08-31T08:39:13.228Z,22.80
2022-08-31T08:41:50.764Z,22.80
2022-08-31T08:44:20.157Z,22.70
2022-08-31T08:46:57.952Z,22.70
2022-08-31T08:49:51.029Z,22.80
2022-08-31T08:52:28.441Z,23.10
2022-08-31T08:55:02.194Z,23.40
2022-08-31T08:57:35.798Z,23.60
2022-08-31T09:00:12.313Z,23.70
2022-08-31T09:02:58.059Z,23.90
2022-08-31T09:06:03.001Z,24.20
2022-08-31T09:09:36.356Z,24.50
2022-08-31T09:12:20.879Z,24.90
2022-08-31T09:15:16.872Z,25.10
2022-08-31T09:18:00.079Z,25.30
2022-08-31T09:20:30.479Z,25.40
2022-08-31T09:23:00.785Z,25.50
2022-08-31T09:25:33.396Z,25.60
2022-08-31T09:28:37.435Z,25.70
2022-08-31T09:31:06.011Z,25.80
2022-08-31T09:33:47.569Z,25.80
2022-08-31T09:36:18.161Z,25.90
2022-08-31T09:38:47.901Z,25.80
2022-08-31T09:41:32.809Z,25.90
2022-08-31T09:44:24.858Z,26.00
2022-08-31T09:46:59.393Z,26.10
2022-08-31T09:49:33.602Z,26.30
2022-08-31T09:52:48.464Z,26.40
2022-08-31T09:55:24.902Z,26.70
2022-08-31T09:57:59.065Z,27.10
2022-08-31T10:00:35.269Z,27.40
2022-08-31T10:03:20.769Z,27.60
2022-08-31T10:05:54.613Z,28.00
2022-08-31T10:08:40.887Z,28.20
2022-08-31T10:11:15.775Z,28.20
2022-08-31T10:13:57.267Z,28.30
2022-08-31T10:16:31.391Z,28.40
2022-08-31T10:19:06.218Z,28.10
2022-08-31T10:21:52.186Z,28.00
2022-08-31T10:24:34.569Z,28.00
2022-08-31T10:27:16.520Z,27.90
2022-08-31T10:29:56.203Z,28.00
2022-08-31T10:32:35.050Z,28.30
2022-08-31T10:35:12.478Z,28.50
2022-08-31T10:37:59.416Z,28.70
2022-08-31T10:40:32.569Z,28.80
2022-08-31T10:43:17.737Z,28.90
2022-08-31T10:45:49.552Z,28.80
2022-08-31T10:48:21.073Z,28.60
2022-08-31T10:50:58.942Z,28.70
2022-08-31T10:53:52.225Z,28.70
2022-08-31T10:56:32.388Z,28.80
2022-08-31T10:59:11.740Z,28.80
2022-08-31T11:01:53.329Z,28.80
2022-08-31T11:04:51.856Z,28.80
2022-08-31T11:07:40.771Z,28.90
2022-08-31T11:10:23.167Z,29.10
2022-08-31T11:12:57.739Z,29.30
2022-08-31T11:15:58.293Z,29.50
2022-08-31T11:19:10.226Z,29.60
2022-08-31T11:22:17.367Z,29.30
2022-08-31T11:25:48.097Z,29.20
2022-08-31T11:28:34.229Z,29.00
2022-08-31T11:31:08.466Z,28.90
2022-08-31T11:33:37.854Z,29.00
2022-08-31T11:36:08.879Z,28.90
2022-08-31T11:38:54.635Z,29.00
2022-08-31T11:41:43.641Z,29.10
2022-08-31T11:45:06.012Z,29.20
2022-08-31T11:47:43.401Z,29.50
2022-08-31T11:51:04.004Z,29.90
2022-08-31T11:53:37.808Z,30.20
2022-08-31T11:56:07.035Z,30.50
2022-08-31T11:58:39.762Z,30.70
2022-08-31T12:01:33.823Z,30.80
2022-08-31T12:04:04.443Z,31.00
2022-08-31T12:07:09.162Z,31.20
2022-08-31T12:10:16.770Z,31.30
2022-08-31T12:13:07.539Z,31.30
2022-08-31T12:16:04.902Z,31.30
2022-08-31T12:19:43.410Z,31.40
2022-08-31T12:22:49.389Z,31.50
2022-08-31T12:25:29.208Z,31.50
2022-08-31T12:28:11.849Z,31.50
2022-08-31T12:30:51.492Z,31.40
2022-08-31T12:33:23.748Z,31.50
2022-08-31T12:35:58.019Z,31.50
2022-08-31T12:38:27.565Z,31.60
2022-08-31T12:40:57.927Z,31.60
2022-08-31T12:43:36.448Z,31.50
2022-08-31T12:46:31.949Z,31.40
2022-08-31T12:50:00.960Z,31.20
2022-08-31T12:52:52.090Z,31.10
2022-08-31T12:55:33.349Z,31.20
2022-08-31T12:58:35.562Z,31.30
2022-08-31T13:01:12.501Z,31.40
2022-08-31T13:03:54.071Z,31.50
2022-08-31T13:06:28.042Z,31.50
2022-08-31T13:08:58.980Z,31.60
2022-08-31T13:11:39.954Z,31.60
2022-08-31T13:14:15.234Z,31.80
2022-08-31T13:16:47.397Z,31.80
2022-08-31T13:19:25.724Z,31.90
2022-08-31T13:21:58.644Z,32.10
2022-08-31T13:24:31.165Z,32.20
2022-08-31T13:27:18.360Z,32.10
2022-08-31T13:29:47.951Z,32.10
2022-08-31T13:32:32.803Z,32.10
2022-08-31T13:35:09.946Z,32.20
2022-08-31T13:37:43.471Z,32.10
2022-08-31T13:40:19.092Z,32.00
2022-08-31T13:42:57.178Z,31.90
2022-08-31T13:45:29.258Z,31.90
2022-08-31T13:48:01.115Z,32.00
2022-08-31T13:50:52.278Z,32.10
2022-08-31T13:53:39.789Z,31.90
2022-08-31T13:56:56.465Z,31.90
2022-08-31T13:59:38.744Z,32.00
2022-08-31T14:02:39.530Z,32.10
2022-08-31T14:05:12.918Z,32.10
2022-08-31T14:08:02.343Z,32.20
2022-08-31T14:10:36.733Z,32.30
2022-08-31T14:13:13.849Z,32.20
2022-08-31T14:15:50.371Z,32.20
2022-08-31T14:18:27.607Z,32.10
2022-08-31T14:21:22.849Z,32.20
2022-08-31T14:23:54.598Z,32.30
2022-08-31T14:26:26.341Z,32.40
2022-08-31T14:29:00.232Z,32.50
2022-08-31T14:31:33.976Z,32.50
2022-08-31T14:34:22.058Z,32.60
2022-08-31T14:36:57.560Z,32.70
2022-08-31T14:39:31.048Z,32.90
2022-08-31T14:42:02.896Z,32.90
2022-08-31T14:44:35.284Z,32.90
2022-08-31T14:47:03.583Z,32.90
2022-08-31T14:49:36.294Z,32.80
2022-08-31T14:52:07.259Z,32.80
2022-08-31T14:54:37.449Z,32.70
2022-08-31T14:57:12.754Z,32.60
2022-08-31T14:59:44.777Z,32.70
2022-08-31T15:02:16.454Z,32.60
2022-08-31T15:04:46.241Z,32.50
2022-08-31T15:07:16.136Z,32.40
2022-08-31T15:09:46.806Z,32.50
2022-08-31T15:12:16.702Z,32.40
2022-08-31T15:14:47.264Z,32.30
2022-08-31T15:17:19.724Z,32.10
2022-08-31T15:19:54.632Z,32.00
2022-08-31T15:22:25.595Z,31.80
2022-08-31T15:24:54.982Z,31.60
2022-08-31T15:27:25.482Z,31.50
2022-08-31T15:29:56.110Z,31.30
2022-08-31T15:32:24.489Z,31.20
2022-08-31T15:34:58.072Z,31.30
2022-08-31T15:37:31.622Z,31.40
2022-08-31T15:40:03.622Z,31.50
2022-08-31T15:42:36.697Z,31.50
2022-08-31T15:45:06.341Z,31.40
2022-08-31T15:47:56.556Z,31.30
2022-08-31T15:50:31.954Z,31.00
2022-08-31T15:53:08.894Z,30.70
2022-08-31T15:55:40.636Z,30.40
2022-08-31T15:58:10.487Z,30.40
2022-08-31T16:00:41.925Z,30.30
2022-08-31T16:03:10.951Z,30.40
2022-08-31T16:05:43.398Z,30.30
2022-08-31T16:08:13.294Z,30.20
2022-08-31T16:10:45.231Z,30.20
2022-08-31T16:13:15.712Z,30.30
2022-08-31T16:15:51.597Z,30.40
2022-08-31T16:18:22.982Z,30.50
2022-08-31T16:20:52.948Z,30.60
2022-08-31T16:23:21.683Z,30.70
2022-08-31T16:25:50.043Z,30.60
2022-08-31T16:28:20.815Z,30.50
2022-08-31T16:30:51.043Z,30.40
2022-08-31T16:33:20.335Z,30.30
2022-08-31T16:35:48.794Z,30.20
2022-08-31T16:38:19.350Z,30.00
2022-08-31T16:40:47.922Z,29.80
2022-08-31T16:43:16.243Z,29.70
2022-08-31T16:45:44.539Z,29.70
2022-08-31T16:48:30.583Z,29.70
2022-08-31T16:51:02.037Z,29.60
2022-08-31T16:53:32.269Z,29.50
2022-08-31T16:56:03.194Z,29.40
2022-08-31T17:01:23.985Z,29.10
2022-08-31T17:03:55.871Z,28.80
2022-08-31T17:06:26.521Z,28.70
2022-08-31T17:08:58.357Z,28.50
2022-08-31T17:11:32.166Z,28.30
2022-08-31T17:14:03.006Z,28.20
2022-08-31T17:16:35.045Z,28.00
2022-08-31T17:19:06.692Z,28.00
2022-08-31T17:21:36.157Z,27.80
2022-08-31T17:24:11.480Z,27.50
2022-08-31T17:26:40.452Z,27.40
2022-08-31T17:29:08.793Z,27.30
2022-08-31T17:31:42.265Z,27.10
2022-08-31T17:34:14.621Z,27.00
2022-08-31T17:36:43.840Z,26.80
2022-08-31T17:39:15.481Z,26.60
2022-08-31T17:41:45.793Z,26.50
2022-08-31T17:44:16.516Z,26.20
2022-08-31T17:46:47.324Z,26.10
2022-08-31T17:49:16.888Z,25.90
2022-08-31T17:51:48.026Z,25.80
2022-08-31T17:54:20.548Z,25.70
2022-08-31T17:56:53.706Z,25.60
2022-08-31T17:59:24.736Z,25.50
2022-08-31T18:01:55.885Z,25.30
2022-08-31T18:04:26.421Z,25.20
2022-08-31T18:06:55.831Z,25.00
2022-08-31T18:09:28.694Z,24.90
2022-08-31T18:11:57.874Z,24.80
2022-08-31T18:14:31.561Z,24.60
2022-08-31T18:17:03.033Z,24.50
2022-08-31T18:19:32.758Z,24.40
2022-08-31T18:22:02.151Z,24.20
2022-08-31T18:24:35.634Z,24.00
2022-08-31T18:27:07.266Z,23.90
2022-08-31T18:29:36.798Z,23.80
2022-08-31T18:32:08.009Z,23.70
2022-08-31T18:34:40.017Z,23.50
2022-08-31T18:37:09.734Z,23.40
2022-08-31T18:39:53.500Z,23.30
2022-08-31T18:42:36.401Z,23.20
2022-08-31T18:45:19.239Z,23.10
2022-08-31T18:48:20.995Z,23.00
2022-08-31T18:50:44.868Z,22.90
2022-08-31T18:53:29.424Z,22.70
2022-08-31T18:56:06.804Z,22.60
2022-08-31T18:58:36.202Z,22.50
2022-08-31T19:01:07.371Z,22.40
2022-08-31T19:03:37.803Z,22.30
2022-08-31T19:06:06.713Z,22.20
2022-08-31T19:08:36.345Z,22.10
2022-08-31T19:11:09.161Z,21.90
2022-08-31T19:13:39.536Z,21.90
2022-08-31T19:16:15.525Z,21.80
2022-08-31T19:18:45.877Z,21.80
2022-08-31T19:21:21.785Z,21.70
2022-08-31T19:23:51.782Z,21.60
2022-08-31T19:26:26.600Z,21.60
2022-08-31T19:28:56.087Z,21.50
2022-08-31T19:31:27.409Z,21.40
2022-08-31T19:33:57.282Z,21.40
2022-08-31T19:36:27.204Z,21.30
2022-08-31T19:38:56.225Z,21.30
2022-08-31T19:41:27.711Z,21.20
2022-08-31T19:44:07.809Z,21.20
2022-08-31T19:46:39.293Z,21.10
2022-08-31T19:49:11.095Z,21.00
2022-08-31T19:51:42.342Z,21.00
2022-08-31T19:54:12.257Z,21.00
2022-08-31T19:56:44.696Z,21.00
2022-08-31T19:59:17.990Z,20.90
2022-08-31T20:01:48.101Z,20.90
2022-08-31T20:04:19.000Z,20.90
2022-08-31T20:06:49.456Z,20.90
2022-08-31T20:09:22.630Z,20.80
2022-08-31T20:11:54.572Z,20.80
2022-08-31T20:14:24.297Z,20.80
2022-08-31T20:16:52.870Z,20.70
2022-08-31T20:19:24.845Z,20.70
2022-08-31T20:21:55.530Z,20.60
2022-08-31T20:24:28.167Z,20.50
2022-08-31T20:27:00.889Z,20.40
2022-08-31T20:29:30.531Z,20.30
2022-08-31T20:32:01.723Z,20.30
2022-08-31T20:34:30.305Z,20.20
2022-08-31T20:37:01.299Z,20.20
2022-08-31T20:39:32.818Z,20.20
2022-08-31T20:42:03.296Z,20.10
2022-08-31T20:44:35.768Z,20.10
2022-08-31T20:47:24.974Z,20.00
2022-08-31T20:49:56.885Z,19.90
2022-08-31T20:52:30.120Z,20.00
2022-08-31T20:55:02.217Z,19.80
2022-08-31T20:57:33.980Z,19.80
2022-08-31T21:00:05.159Z,19.70
2022-08-31T21:02:35.276Z,19.60
2022-08-31T21:05:36.541Z,19.60
2022-08-31T21:07:57.463Z,19.60
2022-08-31T21:10:37.894Z,19.60
2022-08-31T21:13:13.201Z,19.60
2022-08-31T21:15:44.862Z,19.50
2022-08-31T21:18:15.990Z,19.40
2022-08-31T21:20:44.476Z,19.40
2022-08-31T21:23:13.553Z,19.50
2022-08-31T21:25:45.280Z,19.40
2022-08-31T21:28:18.375Z,19.30
2022-08-31T21:30:50.233Z,19.30
2022-08-31T21:33:19.439Z,19.30
2022-08-31T21:35:47.811Z,19.30
2022-08-31T21:38:16.290Z,19.30
2022-08-31T21:40:51.290Z,19.20
2022-08-31T21:43:21.357Z,19.10
2022-08-31T21:46:00.386Z,19.00
2022-08-31T21:48:30.994Z,19.00
2022-08-31T21:51:09.911Z,19.00
2022-08-31T21:53:38.638Z,19.00
2022-08-31T21:56:07.422Z,19.00
2022-08-31T21:58:37.444Z,19.00
2022-08-31T22:01:10.393Z,18.90
2022-08-31T22:03:40.473Z,18.90
2022-08-31T22:06:09.551Z,18.80
2022-08-31T22:08:40.127Z,18.80
2022-08-31T22:11:13.212Z,18.80
2022-08-31T22:13:43.881Z,18.70
2022-08-31T22:16:18.843Z,18.70
2022-08-31T22:19:01.435Z,18.60
2022-08-31T22:21:34.131Z,18.60
2022-08-31T22:24:07.472Z,18.60
2022-08-31T22:26:38.706Z,18.50
2022-08-31T22:29:11.938Z,18.40
2022-08-31T22:31:41.860Z,18.40
2022-08-31T22:34:12.073Z,18.40
2022-08-31T22:36:40.635Z,18.30
2022-08-31T22:39:14.612Z,18.30
2022-08-31T22:41:43.588Z,18.20
2022-08-31T22:44:17.619Z,18.20
2022-08-31T22:46:47.323Z,18.20
2022-08-31T22:49:16.929Z,18.10
2022-08-31T22:51:48.454Z,18.10
2022-08-31T22:54:19.739Z,18.10
2022-08-31T22:56:48.535Z,18.00
2022-08-31T22:59:26.085Z,18.00
2022-08-31T23:01:57.458Z,18.00
2022-08-31T23:04:28.239Z,18.00
2022-08-31T23:06:59.147Z,17.90
2022-08-31T23:09:31.050Z,17.90
2022-08-31T23:12:02.391Z,17.80
2022-08-31T23:14:33.310Z,17.80
2022-08-31T23:17:05.469Z,17.80
2022-08-31T23:19:37.418Z,17.70
2022-08-31T23:22:09.401Z,17.70
2022-08-31T23:24:43.216Z,17.60
2022-08-31T23:27:13.410Z,17.60
2022-08-31T23:29:47.641Z,17.50
2022-08-31T23:32:18.775Z,17.50
2022-08-31T23:34:49.913Z,17.40
2022-08-31T23:37:18.718Z,17.40
2022-08-31T23:39:47.782Z,17.40
2022-08-31T23:42:17.824Z,17.30
2022-08-31T23:44:48.950Z,17.30
2022-08-31T23:47:22.328Z,17.30
2022-08-31T23:49:52.411Z,17.30
2022-08-31T23:52:22.655Z,17.30
2022-08-31T23:54:54.493Z,17.30
2022-08-31T23:57:32.315Z,17.30
